createdAt,value
2022-08-05T00:03:32.757Z,48.54
2022-08-05T00:08:36.328Z,48.84
2022-08-05T00:13:40.231Z,48.96
2022-08-05T00:18:48.174Z,48.95
2022-08-05T00:23:53.746Z,49.23
2022-08-05T00:29:13.250Z,49.33
2022-08-05T00:34:55.794Z,49.71
2022-08-05T00:39:41.481Z,49.74
2022-08-05T00:44:46.067Z,49.45
2022-08-05T00:49:51.525Z,49.79
2022-08-05T00:54:53.980Z,50.07
2022-08-05T00:59:58.104Z,50.05
2022-08-05T01:05:00.329Z,50.19
2022-08-05T01:10:03.679Z,50.44
2022-08-05T01:15:35.351Z,50.58
2022-08-05T01:20:50.677Z,50.54
2022-08-05T01:26:10.639Z,49.54
2022-08-05T01:31:21.974Z,50.03
2022-08-05T01:36:29.540Z,50.19
2022-08-05T01:41:36.609Z,50.51
2022-08-05T01:46:46.267Z,50.56
2022-08-05T01:51:51.836Z,50.75
2022-08-05T01:58:09.772Z,50.99
2022-08-05T02:02:28.388Z,51.02
2022-08-05T02:07:33.757Z,51.57
2022-08-05T02:12:58.354Z,51.19
2022-08-05T02:18:27.884Z,51.69
2022-08-05T02:23:38.331Z,51.84
2022-08-05T02:28:45.934Z,51.88
2022-08-05T02:33:57.473Z,51.91
2022-08-05T02:39:01.862Z,51.86
2022-08-05T02:44:11.263Z,52.08
2022-08-05T02:49:18.033Z,51.87
2022-08-05T02:54:35.768Z,51.95
2022-08-05T02:59:50.717Z,51.93
2022-08-05T03:04:55.470Z,51.53
2022-08-05T03:09:57.947Z,51.31
2022-08-05T03:15:00.483Z,51.02
2022-08-05T03:20:02.694Z,50.53
2022-08-05T03:25:32.860Z,50.23
2022-08-05T03:30:34.232Z,49.77
2022-08-05T03:35:40.895Z,49.34
2022-08-05T03:40:47.321Z,48.80
2022-08-05T03:45:57.129Z,48.60
2022-08-05T03:52:38.509Z,48.54
2022-08-05T03:56:41.489Z,47.75
2022-08-05T04:01:47.019Z,47.39
2022-08-05T04:06:51.738Z,47.13
2022-08-05T04:11:56.538Z,46.71
2022-08-05T04:17:03.068Z,47.09
2022-08-05T04:22:11.858Z,46.86
2022-08-05T04:27:15.215Z,47.36
2022-08-05T04:32:29.657Z,47.25
2022-08-05T04:38:02.201Z,47.23
2022-08-05T04:42:56.348Z,47.34
2022-08-05T04:48:16.369Z,46.37
2022-08-05T04:53:29.266Z,46.35
2022-08-05T04:58:36.619Z,45.78
2022-08-05T05:03:41.925Z,45.37
2022-08-05T05:08:44.668Z,45.44
2022-08-05T05:13:52.042Z,45.20
2022-08-05T05:19:18.823Z,44.79
2022-08-05T05:24:21.793Z,44.74
2022-08-05T05:29:23.913Z,44.44
2022-08-05T05:34:43.015Z,43.64
2022-08-05T05:39:45.170Z,42.66
2022-08-05T05:44:47.414Z,42.28
2022-08-05T05:49:56.602Z,42.41
2022-08-05T05:55:13.282Z,42.35
2022-08-05T06:00:19.332Z,41.93
2022-08-05T06:05:22.122Z,41.27
2022-08-05T06:10:24.538Z,39.87
2022-08-05T06:16:28.359Z,38.32
2022-08-05T06:20:54.085Z,36.26
2022-08-05T06:26:12.445Z,36.48
2022-08-05T06:31:21.960Z,33.55
2022-08-05T06:36:25.835Z,31.94
2022-08-05T06:41:28.209Z,29.13
2022-08-05T06:46:36.786Z,26.91
2022-08-05T06:51:40.889Z,25.26
2022-08-05T06:56:54.475Z,23.34
2022-08-05T07:01:57.294Z,22.90
2022-08-05T07:06:59.292Z,21.70
2022-08-05T07:12:01.295Z,21.33
2022-08-05T07:17:58.330Z,22.45
2022-08-05T07:22:28.646Z,21.07
2022-08-05T07:27:58.150Z,20.28
2022-08-05T07:32:54.678Z,18.76
2022-08-05T07:37:57.165Z,18.84
2022-08-05T07:42:59.269Z,18.63
2022-08-05T07:48:06.858Z,18.86
2022-08-05T07:53:10.774Z,19.70
2022-08-05T07:58:17.785Z,19.50
2022-08-05T08:03:44.407Z,18.91
2022-08-05T08:08:47.225Z,17.69
2022-08-05T08:14:01.199Z,16.49
2022-08-05T08:19:03.467Z,15.48
2022-08-05T08:24:13.587Z,15.11
2022-08-05T08:30:03.061Z,14.09
2022-08-05T08:34:38.266Z,13.95
2022-08-05T08:39:44.251Z,14.42
2022-08-05T08:45:23.973Z,15.51
2022-08-05T08:50:33.043Z,14.07
2022-08-05T08:56:03.566Z,13.96
2022-08-05T09:01:03.948Z,13.45
2022-08-05T09:06:08.778Z,13.54
2022-08-05T09:11:15.104Z,12.78
2022-08-05T09:16:17.373Z,12.55
2022-08-05T09:22:22.474Z,11.65
2022-08-05T09:26:51.703Z,12.43
2022-08-05T09:32:42.787Z,12.09
2022-08-05T09:38:15.923Z,12.00
2022-08-05T09:42:50.931Z,11.65
2022-08-05T09:47:56.750Z,11.00
2022-08-05T09:52:59.548Z,10.32
2022-08-05T09:58:14.271Z,9.11
2022-08-05T10:03:16.380Z,8.95
2022-08-05T10:08:36.322Z,9.09
2022-08-05T10:13:47.435Z,8.87
2022-08-05T10:18:50.763Z,8.66
2022-08-05T10:23:59.252Z,8.26
2022-08-05T10:29:02.869Z,8.15
2022-08-05T10:34:07.038Z,7.94
2022-08-05T10:40:03.255Z,7.60
2022-08-05T10:44:47.983Z,7.81
2022-08-05T10:50:35.249Z,9.41
2022-08-05T10:56:03.196Z,9.51
2022-08-05T11:01:08.343Z,8.98
2022-08-05T11:06:16.184Z,9.46
2022-08-05T11:11:44.513Z,9.36
2022-08-05T11:17:57.778Z,8.59
2022-08-05T11:22:54.045Z,8.18
2022-08-05T11:28:17.565Z,8.59
2022-08-05T11:33:54.997Z,10.39
2022-08-05T11:38:57.722Z,11.16
2022-08-05T11:44:21.630Z,10.97
2022-08-05T11:49:36.992Z,10.06
2022-08-05T11:54:41.613Z,10.13
2022-08-05T11:59:50.349Z,10.08
2022-08-05T12:04:59.184Z,9.15
2022-08-05T12:10:09.550Z,8.90
2022-08-05T12:15:35.755Z,8.77
2022-08-05T12:20:40.827Z,9.04
2022-08-05T12:25:50.474Z,11.11
2022-08-05T12:30:53.105Z,13.13
2022-08-05T12:35:58.242Z,14.50
2022-08-05T12:41:00.375Z,13.86
2022-08-05T12:46:03.297Z,14.78
2022-08-05T12:52:10.062Z,14.45
2022-08-05T12:56:45.161Z,15.12
2022-08-05T13:02:06.864Z,14.50
2022-08-05T13:07:35.822Z,15.03
2022-08-05T13:12:51.233Z,15.83
2022-08-05T13:18:00.065Z,17.25
2022-08-05T13:23:07.085Z,17.24
2022-08-05T13:28:10.660Z,17.10
2022-08-05T13:33:14.358Z,17.27
2022-08-05T13:38:36.210Z,16.90
2022-08-05T13:43:54.735Z,16.54
2022-08-05T13:49:00.375Z,15.85
2022-08-05T13:54:03.326Z,16.50
2022-08-05T13:59:20.178Z,17.04
2022-08-05T14:04:41.762Z,17.68
2022-08-05T14:09:46.343Z,18.33
2022-08-05T14:14:49.074Z,19.23
2022-08-05T14:19:56.926Z,20.15
2022-08-05T14:25:06.440Z,20.55
2022-08-05T14:30:26.625Z,21.12
2022-08-05T14:35:37.129Z,21.95
2022-08-05T14:40:52.034Z,21.61
2022-08-05T14:45:54.117Z,21.55
2022-08-05T14:50:56.269Z,21.93
2022-08-05T14:55:58.435Z,22.61
2022-08-05T15:01:01.727Z,21.75
2022-08-05T15:06:12.796Z,22.54
2022-08-05T15:11:17.833Z,22.29
2022-08-05T15:16:21.551Z,22.71
2022-08-05T15:21:24.457Z,23.27
2022-08-05T15:26:32.234Z,23.26
2022-08-05T15:31:35.126Z,23.10
2022-08-05T15:36:37.243Z,23.55
2022-08-05T15:41:56.071Z,23.66
2022-08-05T15:47:04.410Z,23.66
2022-08-05T15:52:16.130Z,23.77
2022-08-05T15:57:20.473Z,23.13
2022-08-05T16:02:25.496Z,23.54
2022-08-05T16:07:28.735Z,23.93
2022-08-05T16:12:31.791Z,24.57
2022-08-05T16:17:34.039Z,25.62
2022-08-05T16:22:36.503Z,25.75
2022-08-05T16:28:01.063Z,26.24
2022-08-05T16:33:02.966Z,26.41
2022-08-05T16:38:18.752Z,26.78
2022-08-05T16:43:30.423Z,27.17
2022-08-05T16:48:33.907Z,27.25
2022-08-05T16:54:04.954Z,27.56
2022-08-05T16:59:08.134Z,27.56
2022-08-05T17:04:10.720Z,28.22
2022-08-05T17:09:12.755Z,27.46
2022-08-05T17:14:34.482Z,28.50
2022-08-05T17:19:38.782Z,28.87
2022-08-05T17:24:47.392Z,29.01
2022-08-05T17:30:00.825Z,30.03
2022-08-05T17:35:06.455Z,30.25
2022-08-05T17:40:12.789Z,29.83
2022-08-05T17:45:20.193Z,30.07
2022-08-05T17:50:30.051Z,31.03
2022-08-05T17:55:38.332Z,31.56
2022-08-05T18:00:51.032Z,31.44
2022-08-05T18:05:54.265Z,28.33
2022-08-05T18:10:56.622Z,31.57
2022-08-05T18:15:59.406Z,32.67
2022-08-05T18:21:13.352Z,32.81
2022-08-05T18:26:29.611Z,32.40
2022-08-05T18:31:35.532Z,32.61
2022-08-05T18:36:38.074Z,33.29
2022-08-05T18:41:59.235Z,33.41
2022-08-05T18:47:03.879Z,33.90
2022-08-05T18:52:33.122Z,33.94
2022-08-05T18:57:50.156Z,34.33
2022-08-05T19:02:56.018Z,34.78
2022-08-05T19:08:02.002Z,34.82
2022-08-05T19:13:04.106Z,34.92
2022-08-05T19:18:13.606Z,35.19
2022-08-05T19:24:07.034Z,34.93
2022-08-05T19:28:46.587Z,35.33
2022-08-05T19:33:56.330Z,36.50
2022-08-05T19:39:01.077Z,35.51
2022-08-05T19:44:13.730Z,36.17
2022-08-05T19:49:16.978Z,36.25
2022-08-05T19:54:25.500Z,36.74
2022-08-05T19:59:55.525Z,36.97
2022-08-05T20:04:59.480Z,37.49
2022-08-05T20:10:04.846Z,37.81
2022-08-05T20:15:13.971Z,37.92
2022-08-05T20:20:16.215Z,37.70
2022-08-05T20:25:18.334Z,38.28
2022-08-05T20:30:20.389Z,38.33
2022-08-05T20:35:28.522Z,38.09
2022-08-05T20:40:35.436Z,38.73
2022-08-05T20:45:56.061Z,37.97
2022-08-05T20:50:59.131Z,35.05
2022-08-05T20:56:10.275Z,39.03
2022-08-05T21:01:12.362Z,39.81
2022-08-05T21:06:28.121Z,39.32
2022-08-05T21:12:09.192Z,40.08
2022-08-05T21:16:53.371Z,40.04
2022-08-05T21:21:55.646Z,39.94
2022-08-05T21:26:58.220Z,40.51
2022-08-05T21:32:04.400Z,40.42
2022-08-05T21:37:08.257Z,40.58
2022-08-05T21:42:31.154Z,41.19
2022-08-05T21:47:57.208Z,41.31
2022-08-05T21:52:58.992Z,41.45
2022-08-05T21:58:07.036Z,41.86
2022-08-05T22:03:15.258Z,41.96
2022-08-05T22:08:22.464Z,42.10
2022-08-05T22:14:32.384Z,41.90
2022-08-05T22:18:49.037Z,42.12
2022-08-05T22:24:13.302Z,42.45
2022-08-05T22:29:32.982Z,42.57
2022-08-05T22:34:35.383Z,43.08
2022-08-05T22:39:38.341Z,43.19
2022-08-05T22:44:48.342Z,42.63
2022-08-05T22:50:23.100Z,43.14
2022-08-05T22:55:23.941Z,43.89
2022-08-05T23:00:28.632Z,44.08
2022-08-05T23:05:36.187Z,43.83
2022-08-05T23:10:38.799Z,44.25
2022-08-05T23:15:41.058Z,43.94
2022-08-05T23:20:43.351Z,44.01
2022-08-05T23:25:52.346Z,44.18
2022-08-05T23:31:16.495Z,44.52
2022-08-05T23:36:20.696Z,44.65
2022-08-05T23:41:22.746Z,44.86
2022-08-05T23:46:26.142Z,45.12
2022-08-05T23:51:52.649Z,45.32
2022-08-05T23:57:03.871Z,45.50
